X  CloseMetar Aviation Weather Data     LSZB Bern-Belp Airport

Temperatur

15°C Temperatur

11°C Taupunkt

77% Feuchtigkeit



Wind

14 KM/H

 9 MPH

 4 M/S

 8 KTS



310°
Nord West
Aktuelle Wetterlage

Leichter Regen Leichter Regen
Luftdruck 1011.85 (hPa) - 29.88 (in)
Sichtweite 6 (mi) - 9.7 (km)
Flughafen
Airport-code LSZB

Position Bern-Belp Airport 5 (km)

Metar:
LSZB 292250Z AUTO 31008KT 9999 -RA FEW070 BKN075 15/11 Q1012 REDZ

Zeit: 29-05-2024 22:50